createdAt,value
2019-02-17T00:00:45.367Z,15.20
2019-02-17T00:01:45.354Z,13.90
2019-02-17T00:02:45.360Z,14.80
2019-02-17T00:03:45.332Z,15.20
2019-02-17T00:04:45.349Z,15.10
2019-02-17T00:05:45.313Z,15.10
2019-02-17T00:06:45.315Z,13.90
2019-02-17T00:07:45.291Z,15.00
2019-02-17T00:08:45.284Z,14.50
2019-02-17T00:09:45.273Z,14.30
2019-02-17T00:10:45.801Z,14.10
2019-02-17T00:11:45.267Z,14.60
2019-02-17T00:12:45.248Z,14.90
2019-02-17T00:13:45.231Z,14.90
2019-02-17T00:14:45.223Z,14.60
2019-02-17T00:15:45.238Z,14.70
2019-02-17T00:16:45.200Z,14.30
2019-02-17T00:17:45.193Z,15.20
2019-02-17T00:18:45.179Z,14.10
2019-02-17T00:19:45.821Z,14.40
2019-02-17T00:20:45.164Z,14.60
2019-02-17T00:21:45.148Z,14.50
2019-02-17T00:22:45.146Z,13.70
2019-02-17T00:23:45.143Z,14.60
2019-02-17T00:24:45.138Z,14.30
2019-02-17T00:25:45.111Z,14.50
2019-02-17T00:26:45.106Z,14.80
2019-02-17T00:27:45.084Z,13.50
2019-02-17T00:28:45.078Z,14.20
2019-02-17T00:29:45.097Z,13.90
2019-02-17T00:30:45.054Z,13.50
2019-02-17T00:31:45.046Z,13.40
2019-02-17T00:32:45.036Z,14.30
2019-02-17T00:33:45.029Z,14.00
2019-02-17T00:34:45.016Z,14.40
2019-02-17T00:35:45.022Z,15.30
2019-02-17T00:36:44.994Z,14.00
2019-02-17T00:37:44.990Z,14.40
2019-02-17T00:38:44.973Z,14.00
2019-02-17T00:39:44.968Z,13.30
2019-02-17T00:40:45.816Z,13.40
2019-02-17T00:41:44.952Z,14.00
2019-02-17T00:42:44.937Z,13.60
2019-02-17T00:43:44.920Z,14.10
2019-02-17T00:44:44.915Z,13.50
2019-02-17T00:45:44.922Z,13.60
2019-02-17T00:46:44.887Z,13.90
2019-02-17T00:47:44.880Z,13.90
2019-02-17T00:48:44.865Z,13.10
2019-02-17T00:49:44.861Z,13.30
2019-02-17T00:50:44.849Z,13.30
2019-02-17T00:51:44.855Z,13.50
2019-02-17T00:52:44.836Z,13.60
2019-02-17T00:53:44.853Z,13.40
2019-02-17T00:54:44.803Z,13.40
2019-02-17T00:55:44.801Z,13.70
2019-02-17T00:56:44.814Z,13.20
2019-02-17T00:57:44.782Z,13.90
2019-02-17T00:58:44.781Z,14.10
2019-02-17T00:59:44.760Z,13.40
2019-02-17T01:00:44.745Z,13.20
2019-02-17T01:01:44.761Z,13.30
2019-02-17T01:02:44.722Z,14.20
2019-02-17T01:03:44.718Z,13.60
2019-02-17T01:04:44.702Z,13.50
2019-02-17T01:05:44.705Z,13.50
2019-02-17T01:06:44.707Z,13.90
2019-02-17T01:07:44.676Z,13.10
2019-02-17T01:08:44.670Z,13.30
2019-02-17T01:09:44.656Z,13.30
2019-02-17T01:10:44.647Z,13.10
2019-02-17T01:11:44.654Z,13.80
2019-02-17T01:12:44.618Z,13.00
2019-02-17T01:13:44.614Z,13.70
2019-02-17T01:14:44.596Z,13.30
2019-02-17T01:15:44.592Z,12.90
2019-02-17T01:16:44.609Z,13.20
2019-02-17T01:17:44.568Z,13.30
2019-02-17T01:18:44.559Z,13.30
2019-02-17T01:19:44.545Z,12.90
2019-02-17T01:20:44.533Z,14.00
2019-02-17T01:21:44.533Z,14.00
2019-02-17T01:22:44.537Z,13.00
2019-02-17T01:23:44.506Z,13.40
2019-02-17T01:24:44.489Z,12.80
2019-02-17T01:25:44.483Z,13.20
2019-02-17T01:26:44.480Z,13.50
2019-02-17T01:27:44.479Z,13.50
2019-02-17T01:28:44.448Z,13.00
2019-02-17T01:29:44.438Z,13.50
2019-02-17T01:30:44.438Z,12.80
2019-02-17T01:31:44.422Z,13.60
2019-02-17T01:32:44.433Z,14.00
2019-02-17T01:33:44.397Z,13.80
2019-02-17T01:34:44.390Z,13.30
2019-02-17T01:35:44.379Z,13.10
2019-02-17T01:36:44.367Z,13.60
2019-02-17T01:37:44.387Z,13.70
2019-02-17T01:38:44.345Z,13.20
2019-02-17T01:39:44.339Z,12.90
2019-02-17T01:40:44.329Z,13.20
2019-02-17T01:41:44.324Z,12.70
2019-02-17T01:42:44.306Z,13.50
2019-02-17T01:43:44.313Z,14.20
2019-02-17T01:44:44.284Z,13.40
2019-02-17T01:45:44.285Z,13.20
2019-02-17T01:46:44.262Z,13.00
2019-02-17T01:47:44.256Z,13.30
2019-02-17T01:48:44.269Z,14.40
2019-02-17T01:49:44.232Z,14.00
2019-02-17T01:50:44.231Z,13.40
2019-02-17T01:51:44.214Z,14.10
2019-02-17T01:52:44.205Z,12.80
2019-02-17T01:53:44.196Z,13.80
2019-02-17T01:54:44.201Z,13.40
2019-02-17T01:55:44.201Z,13.60
2019-02-17T01:56:44.158Z,12.90
2019-02-17T01:57:44.149Z,13.50
2019-02-17T01:58:44.139Z,13.60
2019-02-17T01:59:44.157Z,13.70
2019-02-17T02:00:44.132Z,13.80
2019-02-17T02:01:44.107Z,12.80
2019-02-17T02:02:44.104Z,13.20
2019-02-17T02:03:44.092Z,12.50
2019-02-17T02:04:44.102Z,13.00
2019-02-17T02:05:44.066Z,14.00
2019-02-17T02:06:44.050Z,13.30
2019-02-17T02:07:44.042Z,12.90
2019-02-17T02:08:44.031Z,12.70
2019-02-17T02:09:44.037Z,14.50
2019-02-17T02:10:44.019Z,13.70
2019-02-17T02:11:43.997Z,13.50
2019-02-17T02:12:43.986Z,13.20
2019-02-17T02:13:43.977Z,13.10
2019-02-17T02:14:43.986Z,12.80
2019-02-17T02:15:43.955Z,12.70
2019-02-17T02:16:43.947Z,13.00
2019-02-17T02:17:43.934Z,13.10
2019-02-17T02:18:43.923Z,13.00
2019-02-17T02:19:43.944Z,13.10
2019-02-17T02:20:43.905Z,13.50
2019-02-17T02:21:43.895Z,13.20
2019-02-17T02:22:43.885Z,13.10
2019-02-17T02:23:43.872Z,13.80
2019-02-17T02:24:43.862Z,13.50
2019-02-17T02:25:43.869Z,13.00
2019-02-17T02:26:43.843Z,13.90
2019-02-17T02:27:43.829Z,14.30
2019-02-17T02:28:43.838Z,14.00
2019-02-17T02:29:43.809Z,13.70
2019-02-17T02:30:43.836Z,13.60
2019-02-17T02:31:43.792Z,13.00
2019-02-17T02:32:43.784Z,13.20
2019-02-17T02:33:43.791Z,13.10
2019-02-17T02:34:43.760Z,13.50
2019-02-17T02:35:43.773Z,13.50
2019-02-17T02:36:43.735Z,13.20
2019-02-17T02:37:43.731Z,13.10
2019-02-17T02:38:43.715Z,12.90
2019-02-17T02:39:43.703Z,12.70
2019-02-17T02:40:43.696Z,12.60
2019-02-17T02:41:43.830Z,12.40
2019-02-17T02:42:43.674Z,12.80
2019-02-17T02:43:43.661Z,13.10
2019-02-17T02:44:43.652Z,12.20
2019-02-17T02:45:43.642Z,12.20
2019-02-17T02:46:43.666Z,13.10
2019-02-17T02:47:43.620Z,12.30
2019-02-17T02:48:43.609Z,13.60
2019-02-17T02:49:43.598Z,13.10
2019-02-17T02:50:43.595Z,13.10
2019-02-17T02:51:43.610Z,13.00
2019-02-17T02:52:43.567Z,13.00
2019-02-17T02:53:43.566Z,12.90
2019-02-17T02:54:43.549Z,13.10
2019-02-17T02:55:43.542Z,13.00
2019-02-17T02:56:43.552Z,12.70
2019-02-17T02:57:43.518Z,13.10
2019-02-17T02:58:43.508Z,12.70
2019-02-17T02:59:52.202Z,12.90
2019-02-17T03:00:44.505Z,12.70
2019-02-17T03:01:43.499Z,13.30
2019-02-17T03:02:43.467Z,12.80
2019-02-17T03:03:46.017Z,12.80
2019-02-17T03:04:43.457Z,12.90
2019-02-17T03:05:43.433Z,13.10
2019-02-17T03:06:43.450Z,12.70
2019-02-17T03:07:43.413Z,13.00
2019-02-17T03:08:43.407Z,12.70
2019-02-17T03:09:43.395Z,12.50
2019-02-17T03:10:43.394Z,12.00
2019-02-17T03:11:43.470Z,12.70
2019-02-17T03:12:43.359Z,12.00
2019-02-17T03:13:43.358Z,13.20
2019-02-17T03:14:43.339Z,12.90
2019-02-17T03:15:43.330Z,12.70
2019-02-17T03:16:43.341Z,12.90
2019-02-17T03:17:43.306Z,13.20
2019-02-17T03:18:43.297Z,12.90
2019-02-17T03:19:43.285Z,12.40
2019-02-17T03:20:43.282Z,12.40
2019-02-17T03:21:43.319Z,12.60
2019-02-17T03:22:43.281Z,12.50
2019-02-17T03:23:43.247Z,12.70
2019-02-17T03:24:43.232Z,12.60
2019-02-17T03:25:45.183Z,12.60
2019-02-17T03:26:43.217Z,13.00
2019-02-17T03:27:43.228Z,12.20
2019-02-17T03:28:43.192Z,12.80
2019-02-17T03:29:43.184Z,11.60
2019-02-17T03:30:43.171Z,12.00
2019-02-17T03:31:43.169Z,12.50
2019-02-17T03:32:43.194Z,13.00
2019-02-17T03:33:43.141Z,12.50
2019-02-17T03:34:43.134Z,12.50
2019-02-17T03:35:43.140Z,12.40
2019-02-17T03:36:43.109Z,12.40
2019-02-17T03:37:43.100Z,12.50
2019-02-17T03:38:43.114Z,12.10
2019-02-17T03:39:43.077Z,12.60
2019-02-17T03:40:43.075Z,12.60
2019-02-17T03:41:43.057Z,12.60
2019-02-17T03:42:43.048Z,12.30
2019-02-17T03:43:43.069Z,12.00
2019-02-17T03:44:43.028Z,12.20
2019-02-17T03:45:43.084Z,12.30
2019-02-17T03:46:43.008Z,12.90
2019-02-17T03:47:42.996Z,12.70
2019-02-17T03:48:43.004Z,12.80
2019-02-17T03:49:42.992Z,13.20
2019-02-17T03:50:42.964Z,13.70
2019-02-17T03:51:42.955Z,13.40
2019-02-17T03:52:42.944Z,13.00
2019-02-17T03:53:42.976Z,13.70
2019-02-17T03:54:42.927Z,13.10
2019-02-17T03:55:42.910Z,12.60
2019-02-17T03:56:42.902Z,12.90
2019-02-17T03:57:42.891Z,13.10
2019-02-17T03:58:42.893Z,12.80
2019-02-17T03:59:42.890Z,12.20
2019-02-17T04:00:42.860Z,12.10
2019-02-17T04:01:42.849Z,12.80
2019-02-17T04:02:42.839Z,12.90
2019-02-17T04:03:42.829Z,13.20
2019-02-17T04:04:42.837Z,12.80
2019-02-17T04:05:42.807Z,13.10
2019-02-17T04:06:42.798Z,12.80
2019-02-17T04:07:42.804Z,12.10
2019-02-17T04:08:42.778Z,12.40
2019-02-17T04:09:42.787Z,12.40
2019-02-17T04:10:42.793Z,12.40
2019-02-17T04:11:42.745Z,12.80
2019-02-17T04:12:42.736Z,12.50
2019-02-17T04:13:42.735Z,12.70
2019-02-17T04:14:42.719Z,13.00
2019-02-17T04:15:42.728Z,12.70
2019-02-17T04:16:42.744Z,12.40
2019-02-17T04:17:42.683Z,12.20
2019-02-17T04:18:42.671Z,12.60
2019-02-17T04:19:42.685Z,12.80
2019-02-17T04:20:42.651Z,13.30
2019-02-17T04:21:42.640Z,13.00
2019-02-17T04:22:42.631Z,12.70
2019-02-17T04:23:42.620Z,12.60
2019-02-17T04:24:42.612Z,12.70
2019-02-17T04:25:42.631Z,12.50
2019-02-17T04:26:42.589Z,13.30
2019-02-17T04:27:42.578Z,12.50
2019-02-17T04:28:42.571Z,12.70
2019-02-17T04:29:42.561Z,12.10
2019-02-17T04:30:42.569Z,13.10
2019-02-17T04:31:42.537Z,12.40
2019-02-17T04:32:42.528Z,13.10
2019-02-17T04:33:42.516Z,12.30
2019-02-17T04:34:42.561Z,13.00
2019-02-17T04:35:42.497Z,12.70
2019-02-17T04:36:42.486Z,12.40
2019-02-17T04:37:42.475Z,12.50
2019-02-17T04:38:42.469Z,12.40
2019-02-17T04:39:42.455Z,12.70
2019-02-17T04:40:42.464Z,12.50
2019-02-17T04:41:42.436Z,12.60
2019-02-17T04:42:42.423Z,12.40
2019-02-17T04:43:42.422Z,12.90
2019-02-17T04:44:42.405Z,13.00
2019-02-17T04:45:42.414Z,12.50
2019-02-17T04:46:42.387Z,12.50
2019-02-17T04:47:42.375Z,12.70
2019-02-17T04:48:42.365Z,12.90
2019-02-17T04:49:42.354Z,12.90
2019-02-17T04:50:42.370Z,13.10
2019-02-17T04:51:42.337Z,12.20
2019-02-17T04:52:42.327Z,13.00
2019-02-17T04:53:42.321Z,13.00
2019-02-17T04:54:42.307Z,13.50
2019-02-17T04:55:42.317Z,13.10
2019-02-17T04:56:42.285Z,13.00
2019-02-17T04:57:42.279Z,13.20
2019-02-17T04:58:42.269Z,13.50
2019-02-17T04:59:42.258Z,13.40
2019-02-17T05:00:42.273Z,13.00
2019-02-17T05:01:42.227Z,13.40
2019-02-17T05:02:42.228Z,13.00
2019-02-17T05:03:42.217Z,14.10
2019-02-17T05:04:42.196Z,13.50
2019-02-17T05:05:42.212Z,14.20
2019-02-17T05:06:42.191Z,13.00
2019-02-17T05:07:42.166Z,13.50
2019-02-17T05:08:42.158Z,13.50
2019-02-17T05:09:42.146Z,14.10
2019-02-17T05:10:42.135Z,13.70
2019-02-17T05:11:42.158Z,14.10
2019-02-17T05:12:42.114Z,14.30
2019-02-17T05:13:42.103Z,13.30
2019-02-17T05:14:42.094Z,13.40
2019-02-17T05:15:42.099Z,12.90
2019-02-17T05:16:42.096Z,13.20
2019-02-17T05:17:42.070Z,14.90
2019-02-17T05:18:42.055Z,13.90
2019-02-17T05:19:42.044Z,13.80
2019-02-17T05:20:42.037Z,14.10
2019-02-17T05:21:42.035Z,13.90
2019-02-17T05:22:42.041Z,14.00
2019-02-17T05:23:42.009Z,14.30
2019-02-17T05:24:41.994Z,13.20
2019-02-17T05:25:41.985Z,13.10
2019-02-17T05:26:41.977Z,14.00
2019-02-17T05:27:41.978Z,13.50
2019-02-17T05:28:41.963Z,14.20
2019-02-17T05:29:41.944Z,13.90
2019-02-17T05:30:52.420Z,13.60
2019-02-17T05:31:42.940Z,13.50
2019-02-17T05:32:41.913Z,13.50
2019-02-17T05:33:45.054Z,13.20
2019-02-17T05:34:41.902Z,14.10
2019-02-17T05:35:42.020Z,14.00
2019-02-17T05:36:42.449Z,13.90
2019-02-17T05:37:41.901Z,13.30
2019-02-17T05:38:41.852Z,15.10
2019-02-17T05:39:41.837Z,13.70
2019-02-17T05:40:41.837Z,14.00
2019-02-17T05:41:44.472Z,13.90
2019-02-17T05:42:42.398Z,14.70
2019-02-17T05:43:41.799Z,15.30
2019-02-17T05:44:41.787Z,14.00
2019-02-17T05:45:48.351Z,15.10
2019-02-17T05:46:41.806Z,13.70
2019-02-17T05:47:41.761Z,13.70
2019-02-17T05:48:43.573Z,13.30
2019-02-17T05:49:41.741Z,13.90
2019-02-17T05:50:41.837Z,14.20
2019-02-17T05:51:41.754Z,14.40
2019-02-17T05:52:41.788Z,14.70
2019-02-17T05:53:41.696Z,15.10
2019-02-17T05:54:41.685Z,14.60
2019-02-17T05:55:41.669Z,14.00
2019-02-17T05:56:42.810Z,13.80
2019-02-17T05:57:41.647Z,15.30
2019-02-17T05:58:41.643Z,15.10
2019-02-17T05:59:48.344Z,16.00
2019-02-17T06:00:41.623Z,14.20
2019-02-17T06:01:41.610Z,13.80
2019-02-17T06:02:41.731Z,14.00
2019-02-17T06:03:41.751Z,16.00
2019-02-17T06:04:56.477Z,16.30
2019-02-17T06:05:56.376Z,16.00
2019-02-17T06:08:10.988Z,14.60
2019-02-17T06:09:09.660Z,14.90
2019-02-17T06:10:25.554Z,14.90
2019-02-17T06:11:09.672Z,16.00
2019-02-17T06:12:09.606Z,15.90
2019-02-17T06:13:09.574Z,15.90
2019-02-17T06:14:09.570Z,16.90
2019-02-17T06:15:09.565Z,16.60
2019-02-17T06:16:09.567Z,16.20
2019-02-17T06:17:09.552Z,16.20
2019-02-17T06:18:09.524Z,16.70
2019-02-17T06:19:09.539Z,17.10
2019-02-17T06:20:09.513Z,17.70
2019-02-17T06:21:09.498Z,17.70
2019-02-17T06:22:09.500Z,18.30
2019-02-17T06:23:09.501Z,16.80
2019-02-17T06:24:09.465Z,17.10
2019-02-17T06:25:09.447Z,17.60
2019-02-17T06:26:09.434Z,17.00
2019-02-17T06:27:09.439Z,17.00
2019-02-17T06:28:09.419Z,17.20
2019-02-17T06:29:09.403Z,17.50
2019-02-17T06:30:09.400Z,16.80
2019-02-17T06:31:14.386Z,17.40
2019-02-17T06:32:10.389Z,16.30
2019-02-17T06:33:09.357Z,16.60
2019-02-17T06:34:09.347Z,16.50
2019-02-17T06:35:09.347Z,16.70
2019-02-17T06:36:09.328Z,17.40
2019-02-17T06:37:09.321Z,17.00
2019-02-17T06:38:09.331Z,17.10
2019-02-17T06:39:09.306Z,17.40
2019-02-17T06:40:09.321Z,17.00
2019-02-17T06:41:09.278Z,17.90
2019-02-17T06:42:09.263Z,16.10
2019-02-17T06:43:09.274Z,17.20
2019-02-17T06:44:09.253Z,16.40
2019-02-17T06:45:09.237Z,17.30
2019-02-17T06:46:09.951Z,17.50
2019-02-17T06:47:09.212Z,17.00
2019-02-17T06:48:09.224Z,17.60
2019-02-17T06:49:09.255Z,16.10
2019-02-17T06:50:09.180Z,16.20
2019-02-17T06:51:09.169Z,16.10
2019-02-17T06:52:09.158Z,16.40
2019-02-17T06:53:09.177Z,17.50
2019-02-17T06:54:09.146Z,16.50
2019-02-17T06:55:09.128Z,17.20
2019-02-17T06:56:09.225Z,16.60
2019-02-17T06:57:09.116Z,16.60
2019-02-17T06:58:09.115Z,17.40
2019-02-17T06:59:09.087Z,16.90
2019-02-17T07:00:09.075Z,16.80
2019-02-17T07:01:09.062Z,17.10
2019-02-17T07:02:09.064Z,16.30
2019-02-17T07:03:09.063Z,16.60
2019-02-17T07:04:09.037Z,16.80
2019-02-17T07:05:09.022Z,16.60
2019-02-17T07:06:09.019Z,16.80
2019-02-17T07:07:09.022Z,17.50
2019-02-17T07:08:09.017Z,17.00
2019-02-17T07:09:08.982Z,17.30
2019-02-17T07:10:08.969Z,17.60
2019-02-17T07:11:08.967Z,17.10
2019-02-17T07:12:08.945Z,18.00
2019-02-17T07:13:08.937Z,18.10
2019-02-17T07:14:08.944Z,18.30
2019-02-17T07:15:08.927Z,18.00
2019-02-17T07:16:08.980Z,17.80
2019-02-17T07:17:08.893Z,17.70
2019-02-17T07:18:08.883Z,18.10
2019-02-17T07:19:08.897Z,18.40
2019-02-17T07:20:09.748Z,18.10
2019-02-17T07:21:08.853Z,17.40
2019-02-17T07:22:08.840Z,18.40
2019-02-17T07:23:08.836Z,18.90
2019-02-17T07:24:08.940Z,17.50
2019-02-17T07:25:08.817Z,18.20
2019-02-17T07:26:08.798Z,18.00
2019-02-17T07:27:08.788Z,17.30
2019-02-17T07:28:08.836Z,17.80
2019-02-17T07:29:08.771Z,17.90
2019-02-17T07:30:08.780Z,17.50
2019-02-17T07:31:08.768Z,18.40
2019-02-17T07:32:08.748Z,17.70
2019-02-17T07:33:08.739Z,18.60
2019-02-17T07:34:08.720Z,18.20
2019-02-17T07:35:08.847Z,18.70
2019-02-17T07:36:08.721Z,18.60
2019-02-17T07:37:08.701Z,18.30
2019-02-17T07:38:09.764Z,17.70
2019-02-17T07:39:08.680Z,18.20
2019-02-17T07:40:09.306Z,19.00
2019-02-17T07:41:08.658Z,17.90
2019-02-17T07:42:09.686Z,18.30
2019-02-17T07:43:10.917Z,19.20
2019-02-17T07:44:09.142Z,18.20
2019-02-17T07:45:08.649Z,18.60
2019-02-17T07:46:08.770Z,18.80
2019-02-17T07:47:08.581Z,19.50
2019-02-17T07:48:08.578Z,18.80
2019-02-17T07:49:08.556Z,19.00
2019-02-17T07:50:08.553Z,20.10
2019-02-17T07:51:08.564Z,18.60
2019-02-17T07:52:08.534Z,18.90
2019-02-17T07:53:08.530Z,18.60
2019-02-17T07:54:08.571Z,19.20
2019-02-17T07:55:08.495Z,19.20
2019-02-17T07:56:08.514Z,19.10
2019-02-17T07:57:08.481Z,19.20
2019-02-17T07:58:08.470Z,19.00
2019-02-17T07:59:08.453Z,19.30
2019-02-17T08:00:08.444Z,18.50
2019-02-17T08:01:08.468Z,19.50
2019-02-17T08:02:08.429Z,19.20
2019-02-17T08:03:08.415Z,18.10
2019-02-17T08:04:08.398Z,18.90
2019-02-17T08:05:08.416Z,18.60
2019-02-17T08:06:08.396Z,19.40
2019-02-17T08:07:08.391Z,18.80
2019-02-17T08:08:08.363Z,19.20
2019-02-17T08:09:08.439Z,20.00
2019-02-17T08:10:08.338Z,18.50
2019-02-17T08:11:08.346Z,19.50
2019-02-17T08:12:08.315Z,19.70
2019-02-17T08:13:08.305Z,20.10
2019-02-17T08:14:08.326Z,19.40
2019-02-17T08:15:08.288Z,18.50
2019-02-17T08:16:08.298Z,19.70
2019-02-17T08:17:08.272Z,18.60
2019-02-17T08:18:08.323Z,19.30
2019-02-17T08:19:08.245Z,19.80
2019-02-17T08:20:08.238Z,19.50
2019-02-17T08:21:08.224Z,19.10
2019-02-17T08:22:09.014Z,19.00
2019-02-17T08:23:08.211Z,19.30
2019-02-17T08:24:08.191Z,19.80
2019-02-17T08:25:08.198Z,20.20
2019-02-17T08:26:08.178Z,19.10
2019-02-17T08:27:08.215Z,19.70
2019-02-17T08:28:08.153Z,20.20
2019-02-17T08:29:08.144Z,20.20
2019-02-17T08:30:08.139Z,20.40
2019-02-17T08:31:08.120Z,19.60
2019-02-17T08:32:08.160Z,19.50
2019-02-17T08:33:08.102Z,19.90
2019-02-17T08:34:08.097Z,19.90
2019-02-17T08:35:08.075Z,20.90
2019-02-17T08:36:08.104Z,19.90
2019-02-17T08:37:08.086Z,20.40
2019-02-17T08:38:08.048Z,20.60
2019-02-17T08:39:08.043Z,20.00
2019-02-17T08:40:08.033Z,19.50
2019-02-17T08:41:08.038Z,20.80
2019-02-17T08:42:08.004Z,20.00
2019-02-17T08:43:08.019Z,19.40
2019-02-17T08:44:07.987Z,19.80
2019-02-17T08:45:08.007Z,20.00
2019-02-17T08:46:07.961Z,21.10
2019-02-17T08:47:07.951Z,20.90
2019-02-17T08:48:07.962Z,19.50
2019-02-17T08:49:07.931Z,20.30
2019-02-17T08:50:07.935Z,20.10
2019-02-17T08:51:07.910Z,20.50
2019-02-17T08:52:07.914Z,20.40
2019-02-17T08:53:07.915Z,20.40
2019-02-17T08:54:07.898Z,20.00
2019-02-17T08:55:07.872Z,20.50
2019-02-17T08:56:07.861Z,20.00
2019-02-17T08:57:07.848Z,20.10
2019-02-17T08:58:07.861Z,20.50
2019-02-17T08:59:07.839Z,20.50
2019-02-17T09:00:07.818Z,20.30
2019-02-17T09:01:07.804Z,20.30
2019-02-17T09:02:07.796Z,20.30
2019-02-17T09:03:07.823Z,20.30
2019-02-17T09:04:07.772Z,19.80
2019-02-17T09:05:07.764Z,19.30
2019-02-17T09:06:07.751Z,19.60
2019-02-17T09:07:15.342Z,19.80
2019-02-17T09:08:07.813Z,20.00
2019-02-17T09:09:07.724Z,19.30
2019-02-17T09:10:07.766Z,19.70
2019-02-17T09:11:07.742Z,19.40
2019-02-17T09:12:07.696Z,20.10
2019-02-17T09:13:08.049Z,19.10
2019-02-17T09:14:07.689Z,19.80
2019-02-17T09:15:07.690Z,19.20
2019-02-17T09:16:07.669Z,18.80
2019-02-17T09:17:07.658Z,18.50
2019-02-17T09:18:15.239Z,19.00
2019-02-17T09:19:07.642Z,18.90
2019-02-17T09:20:08.088Z,19.50
2019-02-17T09:21:07.623Z,18.90
2019-02-17T09:22:07.590Z,18.00
2019-02-17T09:23:07.610Z,18.00
2019-02-17T09:24:07.593Z,18.30
2019-02-17T09:25:07.597Z,18.10
2019-02-17T09:26:07.600Z,17.70
2019-02-17T09:27:15.148Z,17.50
2019-02-17T09:28:07.526Z,18.00
2019-02-17T09:29:07.680Z,17.40
2019-02-17T09:30:15.053Z,17.30
2019-02-17T09:31:07.529Z,18.20
2019-02-17T09:32:16.860Z,17.60
2019-02-17T09:33:07.521Z,17.40
2019-02-17T09:34:07.517Z,17.00
2019-02-17T09:35:07.477Z,17.00
2019-02-17T09:36:07.440Z,17.30
2019-02-17T09:37:07.430Z,16.60
2019-02-17T09:38:07.453Z,17.50
2019-02-17T09:39:07.438Z,17.10
2019-02-17T09:40:07.513Z,17.20
2019-02-17T09:41:08.171Z,16.80
2019-02-17T09:42:07.391Z,17.50
2019-02-17T09:43:07.566Z,16.90
2019-02-17T09:44:07.389Z,16.50
2019-02-17T09:45:07.373Z,16.30
2019-02-17T09:46:07.344Z,17.20
2019-02-17T09:47:07.323Z,16.50
2019-02-17T09:48:07.328Z,17.30
2019-02-17T09:49:07.327Z,16.30
2019-02-17T09:50:07.327Z,17.10
2019-02-17T09:51:07.296Z,16.00
2019-02-17T09:52:07.267Z,16.50
2019-02-17T09:53:07.259Z,16.50
2019-02-17T09:54:07.252Z,16.40
2019-02-17T09:55:07.280Z,16.00
2019-02-17T09:56:07.226Z,16.90
2019-02-17T09:57:07.213Z,16.20
2019-02-17T09:58:07.214Z,15.50
2019-02-17T09:59:14.775Z,15.90
2019-02-17T10:00:07.218Z,16.30
2019-02-17T10:01:07.191Z,15.80
2019-02-17T10:02:07.168Z,16.30
2019-02-17T10:03:07.154Z,15.80
2019-02-17T10:04:07.135Z,16.60
2019-02-17T10:05:07.141Z,16.40
2019-02-17T10:06:07.166Z,16.20
2019-02-17T10:07:07.116Z,15.90
2019-02-17T10:08:07.107Z,16.10
2019-02-17T10:09:07.091Z,16.30
2019-02-17T10:10:07.090Z,16.20
2019-02-17T10:11:07.074Z,16.00
2019-02-17T10:12:07.050Z,16.60
2019-02-17T10:13:07.063Z,16.40
2019-02-17T10:14:14.869Z,16.10
2019-02-17T10:15:07.124Z,15.30
2019-02-17T10:16:07.876Z,15.00
2019-02-17T10:17:07.094Z,15.70
2019-02-17T10:18:07.055Z,16.10
2019-02-17T10:19:06.976Z,15.60
2019-02-17T10:20:07.089Z,15.40
2019-02-17T10:21:07.001Z,15.90
2019-02-17T10:22:06.965Z,15.50
2019-02-17T10:23:06.942Z,15.10
2019-02-17T10:24:06.974Z,15.80
2019-02-17T10:25:06.917Z,15.90
2019-02-17T10:26:06.925Z,15.70
2019-02-17T10:27:06.895Z,15.30
2019-02-17T10:28:07.046Z,15.50
2019-02-17T10:29:06.954Z,14.80
2019-02-17T10:30:06.886Z,15.30
2019-02-17T10:31:06.861Z,15.50
2019-02-17T10:32:06.882Z,15.70
2019-02-17T10:33:06.852Z,14.90
2019-02-17T10:34:06.830Z,14.90
2019-02-17T10:35:06.843Z,15.20
2019-02-17T10:36:06.825Z,14.90
2019-02-17T10:37:06.784Z,15.00
2019-02-17T10:38:06.785Z,15.10
2019-02-17T10:39:06.774Z,14.70
2019-02-17T10:40:06.969Z,15.00
2019-02-17T10:41:06.797Z,15.20
2019-02-17T10:42:06.847Z,14.20
2019-02-17T10:43:06.733Z,15.00
2019-02-17T10:44:06.726Z,14.60
2019-02-17T10:45:06.725Z,14.40
2019-02-17T10:46:06.708Z,14.20
2019-02-17T10:47:06.760Z,14.60
2019-02-17T10:48:06.694Z,13.90
2019-02-17T10:49:06.652Z,14.30
2019-02-17T10:50:06.638Z,14.40
2019-02-17T10:51:06.771Z,14.50
2019-02-17T10:52:06.624Z,14.60
2019-02-17T10:53:06.608Z,14.40
2019-02-17T10:54:06.605Z,13.60
2019-02-17T10:55:06.586Z,14.10
2019-02-17T10:56:06.607Z,13.60
2019-02-17T10:57:06.697Z,13.70
2019-02-17T10:58:06.552Z,14.10
2019-02-17T10:59:06.578Z,14.00
2019-02-17T11:00:06.541Z,14.30
2019-02-17T11:01:06.551Z,13.70
2019-02-17T11:02:06.522Z,13.30
2019-02-17T11:03:06.529Z,14.40
2019-02-17T11:04:06.659Z,14.00
2019-02-17T11:05:06.484Z,13.80
2019-02-17T11:06:06.525Z,13.30
2019-02-17T11:07:06.459Z,13.50
2019-02-17T11:08:06.450Z,13.70
2019-02-17T11:09:06.441Z,13.60
2019-02-17T11:10:06.507Z,13.30
2019-02-17T11:11:06.509Z,13.10
2019-02-17T11:12:06.435Z,13.30
2019-02-17T11:13:06.407Z,14.30
2019-02-17T11:14:06.403Z,13.50
2019-02-17T11:15:06.383Z,13.10
2019-02-17T11:16:06.374Z,13.00
2019-02-17T11:17:06.418Z,13.30
2019-02-17T11:18:06.355Z,13.10
2019-02-17T11:19:06.352Z,12.30
2019-02-17T11:20:06.316Z,12.50
2019-02-17T11:21:06.341Z,12.50
2019-02-17T11:22:06.320Z,12.80
2019-02-17T11:23:06.294Z,12.70
2019-02-17T11:24:06.429Z,12.50
2019-02-17T11:25:06.276Z,12.30
2019-02-17T11:26:06.306Z,13.00
2019-02-17T11:27:06.368Z,12.50
2019-02-17T11:28:06.231Z,12.80
2019-02-17T11:29:06.223Z,12.60
2019-02-17T11:30:06.209Z,12.50
2019-02-17T11:31:06.217Z,13.10
2019-02-17T11:32:06.204Z,12.30
2019-02-17T11:33:06.259Z,12.30
2019-02-17T11:34:06.169Z,12.70
2019-02-17T11:35:06.163Z,12.60
2019-02-17T11:36:06.146Z,12.60
2019-02-17T11:37:06.138Z,12.30
2019-02-17T11:38:06.212Z,12.00
2019-02-17T11:39:06.118Z,11.80
2019-02-17T11:40:06.110Z,11.90
2019-02-17T11:41:06.095Z,12.60
2019-02-17T11:42:06.132Z,12.50
2019-02-17T11:43:06.098Z,12.30
2019-02-17T11:44:06.070Z,12.30
2019-02-17T11:45:06.078Z,12.10
2019-02-17T11:46:06.267Z,12.40
2019-02-17T11:47:31.160Z,12.90
2019-02-17T12:09:14.321Z,12.40
2019-02-17T12:10:26.352Z,11.80
2019-02-17T12:20:26.722Z,11.40
2019-02-17T12:21:26.605Z,11.50
2019-02-17T12:22:26.585Z,11.10
2019-02-17T12:23:26.493Z,11.20
2019-02-17T12:24:26.520Z,10.80
2019-02-17T12:25:26.472Z,10.60
2019-02-17T12:26:26.461Z,11.00
2019-02-17T12:27:26.481Z,11.10
2019-02-17T12:28:26.467Z,10.20
2019-02-17T12:35:52.809Z,10.70
2019-02-17T12:36:52.670Z,10.80
2019-02-17T12:37:52.691Z,10.00
2019-02-17T12:38:52.562Z,10.00
2019-02-17T12:39:52.563Z,10.00
2019-02-17T12:40:52.556Z,10.20
2019-02-17T12:41:52.524Z,10.40
2019-02-17T12:42:52.526Z,10.50
2019-02-17T12:43:52.536Z,10.30
2019-02-17T12:44:52.506Z,10.00
2019-02-17T12:45:52.496Z,10.00
2019-02-17T12:46:52.473Z,10.30
2019-02-17T12:47:58.120Z,10.00
2019-02-17T12:48:53.459Z,10.00
2019-02-17T12:49:52.659Z,9.60
2019-02-17T12:50:52.467Z,10.70
2019-02-17T12:51:52.433Z,9.30
2019-02-17T12:52:52.418Z,9.90
2019-02-17T12:53:52.406Z,9.50
2019-02-17T12:54:52.385Z,9.90
2019-02-17T12:55:52.405Z,10.00
2019-02-17T12:56:52.394Z,9.70
2019-02-17T12:57:52.360Z,9.80
2019-02-17T12:58:52.338Z,9.60
2019-02-17T12:59:52.337Z,9.80
2019-02-17T13:00:52.331Z,9.90
2019-02-17T13:02:23.822Z,9.60
2019-02-17T13:03:28.411Z,9.20
2019-02-17T13:04:25.448Z,9.50
2019-02-17T13:05:23.654Z,9.60
2019-02-17T13:06:23.668Z,9.90
2019-02-17T13:07:23.631Z,9.60
2019-02-17T13:08:23.621Z,9.90
2019-02-17T13:09:23.614Z,9.60
2019-02-17T13:10:23.595Z,9.70
2019-02-17T13:11:23.615Z,9.80
2019-02-17T13:12:23.606Z,9.30
2019-02-17T13:13:23.636Z,9.70
2019-02-17T13:14:23.559Z,9.10
2019-02-17T13:15:23.561Z,9.00
2019-02-17T13:16:23.566Z,9.50
2019-02-17T13:17:23.518Z,9.00
2019-02-17T13:18:23.508Z,8.70
2019-02-17T13:19:23.525Z,8.70
2019-02-17T13:20:23.532Z,9.30
2019-02-17T13:21:23.482Z,9.40
2019-02-17T13:22:23.514Z,9.70
2019-02-17T13:23:23.457Z,9.00
2019-02-17T13:24:23.447Z,8.50
2019-02-17T13:25:23.518Z,9.30
2019-02-17T13:26:23.444Z,9.60
2019-02-17T13:27:23.442Z,9.30
2019-02-17T13:28:23.423Z,9.20
2019-02-17T13:29:23.436Z,8.70
2019-02-17T13:30:23.390Z,9.30
2019-02-17T13:31:23.406Z,9.30
2019-02-17T13:32:23.359Z,8.80
2019-02-17T13:33:23.382Z,8.50